< < Back
Terminal Aerodrome Forecast


Current Version              Previous Versions:   1  2  3  4  5  6  7  8  9  

Terminal Aerodrome Forecast

365
FTUS42 KCAE 251138
TAFAGS
TAF
KAGS 251138Z 2512/2612 00000KT P6SM FEW250
     FM251400 33005KT P6SM FEW250
     FM251900 VRB05KT P6SM SCT040 BKN100
     FM260100 VRB03KT P6SM BKN080=

Latest METAR

021
SAUS70 KWBC 251200 RRG
MTRAGS
METAR KAGS 251153Z 00000KT 10SM CLR 25/22 A3005 RMK AO2 SLP172 T02500222
10250 20211 53018


USA.gov is the U.S. government's official web portal to all federal, state and local government web resources and services.